createdAt,value
2019-06-10T00:03:35.310Z,91.3
2019-06-10T00:08:41.186Z,90.2
2019-06-10T00:13:47.664Z,92.1
2019-06-10T00:18:52.724Z,91.3
2019-06-10T00:24:02.139Z,92
2019-06-10T00:29:12.284Z,92
2019-06-10T00:34:20.811Z,91.2
2019-06-10T00:39:23.615Z,92.5
2019-06-10T00:44:27.995Z,92.1
2019-06-10T00:49:28.216Z,92.9
2019-06-10T00:54:34.118Z,93.5
2019-06-10T00:59:41.239Z,94.5
2019-06-10T01:04:44.239Z,92.5
2019-06-10T01:09:53.021Z,93.1
2019-06-10T01:14:55.434Z,92.7
2019-06-10T01:20:01.470Z,92.6
2019-06-10T01:25:05.292Z,92.5
2019-06-10T01:30:27.141Z,93.6
2019-06-10T01:35:27.830Z,92.9
2019-06-10T01:40:35.447Z,92.6
2019-06-10T01:45:42.045Z,93.6
2019-06-10T01:50:48.304Z,93.1
2019-06-10T01:55:52.648Z,94.4
2019-06-10T02:01:01.500Z,93.3
2019-06-10T02:06:14.346Z,93.3
2019-06-10T02:11:23.404Z,92.9
2019-06-10T02:16:33.356Z,92.8
2019-06-10T02:21:36.488Z,92.7
2019-06-10T02:26:47.184Z,93.5
2019-06-10T02:31:52.475Z,93.2
2019-06-10T02:36:56.924Z,94.2
2019-06-10T02:42:04.402Z,94.1
2019-06-10T02:47:08.205Z,93.6
2019-06-10T02:57:18.014Z,93.1
2019-06-10T03:02:29.768Z,93.6
2019-06-10T03:07:38.915Z,92.9
2019-06-10T03:12:38.447Z,92.9
2019-06-10T03:22:57.264Z,84
2019-06-10T03:28:05.860Z,75.6
2019-06-10T03:33:17.656Z,71.4
2019-06-10T03:38:28.192Z,65.9
2019-06-10T03:43:32.836Z,60.8
2019-06-10T03:48:43.199Z,61.9
2019-06-10T03:58:49.027Z,66.3
2019-06-10T04:03:55.318Z,72.5
2019-06-10T04:09:02.760Z,75.9
2019-06-10T04:14:05.021Z,77.5
2019-06-10T04:24:15.908Z,81.3
2019-06-10T04:29:19.930Z,82.4
2019-06-10T04:34:29.913Z,81.1
2019-06-10T04:39:48.783Z,68.1
2019-06-10T04:44:52.421Z,58
2019-06-10T04:49:59.838Z,55.6
2019-06-10T04:55:06.773Z,53.7
2019-06-10T05:00:16.226Z,51.1
2019-06-10T05:05:16.344Z,51.9
2019-06-10T05:10:21.672Z,51.6
2019-06-10T05:15:32.158Z,53
2019-06-10T05:20:58.356Z,51.8
2019-06-10T05:31:14.671Z,52.2
2019-06-10T05:36:25.951Z,53.2
2019-06-10T05:41:35.027Z,52.6
2019-06-10T05:46:43.471Z,52.1
2019-06-10T05:51:49.260Z,55.5
2019-06-10T05:56:55.005Z,52.8
2019-06-10T06:02:02.254Z,53.2
2019-06-10T06:07:06.231Z,53.5
2019-06-10T06:12:18.817Z,52.3
2019-06-10T06:17:26.346Z,52.8
2019-06-10T06:22:37.741Z,53.5
2019-06-10T06:27:45.028Z,51.4
2019-06-10T06:32:46.591Z,52.4
2019-06-10T06:37:53.933Z,51
2019-06-10T06:43:02.616Z,50.2
2019-06-10T06:48:07.741Z,50.8
2019-06-10T06:53:20.833Z,46
2019-06-10T06:58:24.721Z,49
2019-06-10T07:03:38.186Z,49.9
2019-06-10T07:09:00.211Z,50.9
2019-06-10T07:14:09.978Z,50.9
2019-06-10T07:19:13.541Z,51.3
2019-06-10T07:24:13.619Z,47.1
2019-06-10T07:29:16.190Z,47
2019-06-10T07:34:17.425Z,52.5
2019-06-10T07:39:18.792Z,45.5
2019-06-10T07:44:22.901Z,47.5
2019-06-10T07:49:28.238Z,50.6
2019-06-10T07:54:36.218Z,55.6
2019-06-10T07:59:42.875Z,50.9
2019-06-10T08:04:48.081Z,48.4
2019-06-10T08:09:53.079Z,53
2019-06-10T08:14:58.195Z,51.6
2019-06-10T08:20:05.048Z,50.5
2019-06-10T08:25:06.017Z,51.1
2019-06-10T08:30:27.501Z,52.2
2019-06-10T08:35:48.232Z,52.8
2019-06-10T08:40:56.698Z,53.7
2019-06-10T08:45:55.924Z,52.9
2019-06-10T08:51:03.252Z,53.8
2019-06-10T08:56:08.580Z,54.8
2019-06-10T09:01:13.363Z,52.5
2019-06-10T09:06:23.028Z,54.1
2019-06-10T09:11:28.909Z,55.3
2019-06-10T09:16:36.551Z,56.4
2019-06-10T09:21:56.530Z,52.6
2019-06-10T09:42:18.366Z,51.6
2019-06-10T09:47:24.753Z,52.5
2019-06-10T09:52:27.839Z,52.4
